Time;durP1;ratioP1;P1;durP2;ratioP2;P2;SDS_P1;SDS_P2;PMS_P1;PMS_P2;Temp;Humidity;BMP_temperature;BMP_pressure;BME280_temperature;BME280_humidity;BME280_pressure;Samples;Min_cycle;Max_cycle;Signal;HPM_P1;HPM_P2
2024/03/02 00:00:36;;;;;;;63.47;22.92;;;;;;;4.58;100.00;96209.94;5024555;28;20482;-83
2024/03/02 00:03:03;;;;;;;62.08;21.50;;;;;;;4.59;100.00;96209.69;5024131;28;20496;-83
2024/03/02 00:05:30;;;;;;;62.08;21.60;;;;;;;4.55;100.00;96216.47;5023654;28;20436;-83
2024/03/02 00:07:58;;;;;;;58.47;20.75;;;;;;;4.54;100.00;96212.25;5023963;28;20404;-82
2024/03/02 00:10:29;;;;;;;65.85;21.77;;;;;;;4.53;100.00;96205.41;5024937;28;20412;-82
2024/03/02 00:12:55;;;;;;;63.70;21.17;;;;;;;4.53;100.00;96210.66;5024754;28;20404;-82
2024/03/02 00:15:44;;;;;;;65.23;21.73;;;;;;;4.53;100.00;96208.03;5024187;28;20818;-84
2024/03/02 00:18:12;;;;;;;60.05;20.58;;;;;;;4.52;100.00;96214.31;5024218;28;20392;-82
2024/03/02 00:20:40;;;;;;;70.20;21.58;;;;;;;4.50;100.00;96203.28;5024601;28;20496;-83
2024/03/02 00:23:08;;;;;;;63.50;19.88;;;;;;;4.52;100.00;96205.66;5025130;28;20408;-82
2024/03/02 00:25:40;;;;;;;58.88;20.08;;;;;;;4.50;100.00;96211.16;5025675;28;20916;-84
2024/03/02 00:28:14;;;;;;;61.15;20.13;;;;;;;4.53;100.00;96210.66;5025463;28;20405;-84
2024/03/02 00:30:54;;;;;;;66.43;20.47;;;;;;;4.53;100.00;96215.91;5021896;28;20432;-85
2024/03/02 00:33:21;;;;;;;72.40;20.93;;;;;;;4.54;100.00;96214.06;5022578;28;20450;-84
2024/03/02 00:35:49;;;;;;;70.32;21.02;;;;;;;4.55;100.00;96213.84;5022855;28;20401;-85
2024/03/02 00:38:16;;;;;;;73.53;23.58;;;;;;;4.59;100.00;96214.94;5027737;28;20423;-85
2024/03/02 00:40:42;;;;;;;83.88;23.50;;;;;;;4.71;100.00;96221.91;5030803;28;20743;-85
2024/03/02 00:43:26;;;;;;;84.60;23.95;;;;;;;4.75;100.00;96213.31;5030990;28;20409;-85
2024/03/02 00:45:52;;;;;;;81.50;24.00;;;;;;;4.78;100.00;96215.44;5021098;28;20389;-82
2024/03/02 00:48:19;;;;;;;81.80;23.52;;;;;;;4.78;100.00;96212.84;5026556;28;20401;-82
2024/03/02 00:50:46;;;;;;;77.90;23.75;;;;;;;4.76;100.00;96208.84;5025808;28;20432;-83
2024/03/02 00:53:14;;;;;;;84.80;23.48;;;;;;;4.91;100.00;96212.47;5025677;28;20428;-86
2024/03/02 00:55:44;;;;;;;91.20;24.13;;;;;;;4.85;100.00;96210.81;5025111;28;20950;-84
2024/03/02 00:58:10;;;;;;;65.63;21.30;;;;;;;4.92;100.00;96206.19;5028015;28;20400;-85
2024/03/02 01:00:36;;;;;;;83.20;23.90;;;;;;;4.96;100.00;96207.28;5023158;28;20442;-84
2024/03/02 01:03:03;;;;;;;79.18;24.08;;;;;;;4.92;100.00;96210.63;5023945;28;20396;-84
2024/03/02 01:05:30;;;;;;;72.72;21.50;;;;;;;4.92;100.00;96213.25;5023691;28;20404;-83
2024/03/02 01:07:56;;;;;;;67.40;20.13;;;;;;;4.86;100.00;96215.03;5026097;28;20432;-83
2024/03/02 01:10:23;;;;;;;74.43;22.58;;;;;;;4.85;100.00;96218.69;5023601;28;20429;-83
2024/03/02 01:12:49;;;;;;;67.47;20.58;;;;;;;4.86;100.00;96214.25;5023212;28;20428;-83
2024/03/02 01:15:15;;;;;;;62.22;18.70;;;;;;;4.78;100.00;96212.84;5021911;28;20405;-82
2024/03/02 01:17:41;;;;;;;68.45;21.33;;;;;;;4.75;100.00;96204.63;5021891;28;20404;-83
2024/03/02 01:20:09;;;;;;;69.82;21.55;;;;;;;4.74;100.00;96203.06;5022444;28;20404;-82
2024/03/02 01:22:35;;;;;;;65.53;21.25;;;;;;;4.70;100.00;96212.44;5021649;28;20439;-82
2024/03/02 01:25:02;;;;;;;70.53;21.07;;;;;;;4.63;100.00;96204.75;5022062;28;21000;-84
2024/03/02 01:27:29;;;;;;;67.22;19.30;;;;;;;4.58;100.00;96216.00;5022224;28;20405;-82
2024/03/02 01:29:55;;;;;;;60.42;19.77;;;;;;;4.51;100.00;96212.72;5022187;28;20765;-84
2024/03/02 01:32:21;;;;;;;59.47;18.50;;;;;;;4.42;100.00;96210.75;5021877;28;20430;-83
2024/03/02 01:34:47;;;;;;;72.25;20.80;;;;;;;4.33;100.00;96215.63;5020961;28;20396;-82
2024/03/02 01:37:13;;;;;;;66.93;19.63;;;;;;;4.25;100.00;96222.06;5021827;28;20475;-82
2024/03/02 01:39:40;;;;;;;55.80;17.85;;;;;;;4.16;100.00;96215.63;5022449;28;20463;-83
2024/03/02 01:42:07;;;;;;;62.23;18.87;;;;;;;4.07;100.00;96214.44;5022909;28;20407;-82
2024/03/02 01:44:34;;;;;;;66.57;19.90;;;;;;;4.03;100.00;96215.16;5022104;28;20400;-82
2024/03/02 01:47:00;;;;;;;62.40;19.23;;;;;;;3.91;100.00;96214.44;5021778;28;20401;-84
2024/03/02 01:49:27;;;;;;;74.40;21.43;;;;;;;3.85;100.00;96216.97;5021164;28;20423;-82
2024/03/02 01:51:53;;;;;;;64.57;20.10;;;;;;;3.77;100.00;96216.56;5022114;28;20416;-82
2024/03/02 01:54:19;;;;;;;77.68;21.30;;;;;;;3.75;100.00;96210.78;5023016;28;20401;-82
2024/03/02 01:56:45;;;;;;;65.40;20.33;;;;;;;3.68;100.00;96215.38;5023750;28;20404;-82
2024/03/02 01:59:13;;;;;;;73.82;21.20;;;;;;;3.59;100.00;96212.34;5029508;28;20459;-84
2024/03/02 02:01:40;;;;;;;87.70;24.98;;;;;;;3.54;100.00;96214.84;5030737;28;20431;-84
2024/03/02 02:04:07;;;;;;;80.57;23.70;;;;;;;3.52;100.00;96216.94;5031462;28;20434;-83
2024/03/02 02:06:33;;;;;;;72.13;22.42;;;;;;;3.45;100.00;96208.44;5030724;28;20408;-84
2024/03/02 02:08:59;;;;;;;88.00;25.10;;;;;;;3.41;100.00;96208.09;5031656;28;20602;-84
2024/03/02 02:11:25;;;;;;;89.13;25.98;;;;;;;3.42;100.00;96203.66;5032307;28;20437;-85
2024/03/02 02:13:51;;;;;;;94.20;27.10;;;;;;;3.38;100.00;96197.31;5031591;28;20393;-84
2024/03/02 02:16:18;;;;;;;95.50;26.17;;;;;;;3.39;100.00;96186.59;5031690;28;20404;-83
2024/03/02 02:18:45;;;;;;;97.18;26.58;;;;;;;3.34;100.00;96190.94;5037370;28;20401;-83
2024/03/02 02:21:11;;;;;;;89.68;26.92;;;;;;;3.36;100.00;96194.94;5037271;28;20405;-83
2024/03/02 02:23:39;;;;;;;93.45;27.17;;;;;;;3.32;100.00;96193.78;5037215;28;20471;-82
2024/03/02 02:26:06;;;;;;;97.38;27.52;;;;;;;3.30;100.00;96192.47;5026775;28;20949;-82
2024/03/02 02:28:32;;;;;;;94.03;27.25;;;;;;;3.26;100.00;96191.31;5024601;28;20409;-82
2024/03/02 02:31:00;;;;;;;102.10;28.08;;;;;;;3.22;100.00;96191.03;5023494;28;20936;-82
2024/03/02 02:33:26;;;;;;;105.27;29.97;;;;;;;3.20;100.00;96182.59;5022646;28;20397;-82
2024/03/02 02:35:52;;;;;;;116.47;30.75;;;;;;;3.23;100.00;96191.81;5027071;28;20405;-82
2024/03/02 02:38:19;;;;;;;104.73;29.00;;;;;;;3.22;100.00;96185.78;5023663;28;20827;-81
2024/03/02 02:40:47;;;;;;;111.70;31.10;;;;;;;3.30;100.00;96177.56;5023346;28;20462;-82
2024/03/02 02:43:14;;;;;;;105.35;29.00;;;;;;;3.29;100.00;96172.56;5023972;28;20451;-83
2024/03/02 02:45:40;;;;;;;112.90;30.40;;;;;;;3.32;100.00;96164.22;5024156;28;20488;-81
2024/03/02 02:48:06;;;;;;;105.38;29.27;;;;;;;3.32;100.00;96161.63;5023409;28;20401;-82
2024/03/02 02:50:33;;;;;;;108.13;29.42;;;;;;;3.27;100.00;96159.72;5022928;28;20397;-82
2024/03/02 02:52:59;;;;;;;104.80;29.25;;;;;;;3.28;100.00;96163.94;5022563;28;20491;-81
2024/03/02 02:55:25;;;;;;;100.43;28.97;;;;;;;3.21;100.00;96163.28;5022731;28;20408;-81
2024/03/02 02:57:52;;;;;;;112.07;31.15;;;;;;;3.18;100.00;96176.00;5025130;28;20467;-82
2024/03/02 03:00:19;;;;;;;124.97;33.08;;;;;;;3.05;100.00;96174.47;5025737;28;20409;-81
2024/03/02 03:02:48;;;;;;;107.65;30.35;;;;;;;3.05;100.00;96167.44;5029213;28;20433;-81
2024/03/02 03:05:15;;;;;;;106.78;28.92;;;;;;;3.03;100.00;96168.69;5028807;28;20448;-81
2024/03/02 03:07:42;;;;;;;107.53;30.30;;;;;;;3.00;100.00;96169.97;5028594;28;20389;-81
2024/03/02 03:10:08;;;;;;;112.72;29.77;;;;;;;2.98;100.00;96171.22;5027472;28;20451;-83
2024/03/02 03:12:35;;;;;;;113.40;30.02;;;;;;;2.97;100.00;96173.03;5022634;28;20479;-83
2024/03/02 03:15:07;;;;;;;105.63;29.77;;;;;;;3.01;100.00;96174.13;5022244;28;20393;-82
2024/03/02 03:17:33;;;;;;;100.75;30.02;;;;;;;3.02;100.00;96175.72;5021563;28;20420;-82
2024/03/02 03:20:00;;;;;;;102.07;30.38;;;;;;;3.00;100.00;96177.00;5021889;28;20407;-83
2024/03/02 03:22:26;;;;;;;113.65;32.13;;;;;;;2.99;100.00;96180.63;5021705;28;20413;-84
2024/03/02 03:24:53;;;;;;;96.30;29.67;;;;;;;2.96;100.00;96175.88;5020881;28;20475;-84
2024/03/02 03:27:22;;;;;;;99.22;30.30;;;;;;;2.96;100.00;96171.44;5021654;28;20451;-86
2024/03/02 03:29:48;;;;;;;97.45;28.85;;;;;;;2.92;100.00;96177.38;5021928;28;20715;-83
2024/03/02 03:32:16;;;;;;;101.55;29.60;;;;;;;2.88;100.00;96177.03;5023630;28;20417;-83
2024/03/02 03:34:43;;;;;;;105.57;31.50;;;;;;;2.86;100.00;96179.06;5023402;28;20417;-84
2024/03/02 03:37:09;;;;;;;115.75;31.92;;;;;;;2.83;100.00;96170.91;5021881;28;20447;-84
2024/03/02 03:39:36;;;;;;;99.15;29.55;;;;;;;2.82;100.00;96177.97;5026106;28;20394;-85
2024/03/02 03:42:02;;;;;;;101.97;31.20;;;;;;;2.82;100.00;96177.16;5023197;28;20413;-84
2024/03/02 03:44:28;;;;;;;107.68;30.33;;;;;;;2.80;100.00;96166.13;5023194;28;20427;-82
2024/03/02 03:46:54;;;;;;;98.28;29.38;;;;;;;2.80;100.00;96171.38;5024352;28;20543;-83
2024/03/02 03:49:22;;;;;;;109.53;31.50;;;;;;;2.77;100.00;96170.03;5023169;28;20413;-84
2024/03/02 03:51:48;;;;;;;103.40;29.27;;;;;;;2.72;100.00;96165.47;5023581;28;20450;-84
2024/03/02 03:54:14;;;;;;;114.65;30.85;;;;;;;2.80;100.00;96168.75;5023681;28;20405;-84
2024/03/02 03:56:40;;;;;;;96.22;28.75;;;;;;;2.82;100.00;96177.16;5022630;28;20400;-84
2024/03/02 03:59:07;;;;;;;104.55;30.10;;;;;;;2.79;100.00;96182.84;5022154;28;20401;-84
2024/03/02 04:01:33;;;;;;;94.43;28.85;;;;;;;2.80;100.00;96180.00;5022842;28;20445;-84
2024/03/02 04:04:01;;;;;;;100.45;27.55;;;;;;;2.78;100.00;96179.47;5022997;28;20397;-84
2024/03/02 04:06:29;;;;;;;106.28;29.88;;;;;;;2.71;100.00;96176.94;5023635;28;20822;-83
2024/03/02 04:08:55;;;;;;;93.88;27.95;;;;;;;2.79;100.00;96181.03;5023363;28;20481;-84
2024/03/02 04:11:22;;;;;;;96.65;28.42;;;;;;;2.81;100.00;96183.41;5023681;28;20776;-84
2024/03/02 04:13:48;;;;;;;113.17;30.67;;;;;;;2.84;100.00;96173.31;5023637;28;20405;-85
2024/03/02 04:16:14;;;;;;;106.43;30.15;;;;;;;2.84;100.00;96175.13;5024345;28;20412;-86
2024/03/02 04:18:41;;;;;;;102.10;29.10;;;;;;;2.84;100.00;96178.53;5033808;28;20448;-87
2024/03/02 04:21:07;;;;;;;92.43;29.00;;;;;;;2.88;100.00;96176.22;5036805;28;20396;-84
2024/03/02 04:23:35;;;;;;;91.20;27.48;;;;;;;2.86;100.00;96171.22;5026371;28;20481;-83
2024/03/02 04:26:01;;;;;;;86.97;27.17;;;;;;;2.85;100.00;96174.09;5026312;28;20404;-83
2024/03/02 04:28:27;;;;;;;95.38;28.08;;;;;;;2.85;100.00;96174.91;5027389;28;20468;-84
2024/03/02 04:30:53;;;;;;;92.22;26.42;;;;;;;2.82;100.00;96170.13;5026280;28;20425;-83
2024/03/02 04:33:20;;;;;;;86.88;25.67;;;;;;;2.77;100.00;96172.66;5026783;28;20401;-84
2024/03/02 04:35:46;;;;;;;92.67;26.80;;;;;;;2.72;100.00;96177.75;5026782;28;20420;-85
2024/03/02 04:38:12;;;;;;;99.10;27.60;;;;;;;2.70;100.00;96180.63;5024946;28;20393;-85
2024/03/02 04:40:40;;;;;;;92.85;28.20;;;;;;;2.75;100.00;96179.91;5025482;28;20407;-84
2024/03/02 04:43:06;;;;;;;91.35;26.90;;;;;;;2.73;100.00;96182.75;5026267;28;20417;-82
2024/03/02 04:45:32;;;;;;;102.43;29.40;;;;;;;2.72;100.00;96175.13;5026566;28;20878;-81
2024/03/02 04:47:59;;;;;;;91.28;27.92;;;;;;;2.77;100.00;96171.84;5025324;28;20447;-84
2024/03/02 04:50:25;;;;;;;91.03;27.33;;;;;;;2.77;100.00;96170.03;5023921;28;20389;-83
2024/03/02 04:52:51;;;;;;;79.78;25.13;;;;;;;2.71;100.00;96166.50;5023177;28;20421;-82
2024/03/02 04:57:54;;;;;;;86.87;26.20;;;;;;;2.63;100.00;96179.91;5023296;28;25119;-83
2024/03/02 05:00:21;;;;;;;90.95;26.92;;;;;;;2.60;100.00;96180.41;5022916;28;20414;-82
2024/03/02 05:02:47;;;;;;;97.00;28.73;;;;;;;2.58;100.00;96179.81;5024236;28;20472;-83
2024/03/02 05:05:15;;;;;;;82.55;26.38;;;;;;;2.58;100.00;96177.22;5023058;28;20405;-82
2024/03/02 05:07:44;;;;;;;88.40;26.97;;;;;;;2.55;100.00;96180.31;5022305;28;20479;-83
2024/03/02 05:10:14;;;;;;;89.03;26.50;;;;;;;2.56;100.00;96186.28;5022770;28;20432;-83
2024/03/02 05:12:56;;;;;;;94.45;28.20;;;;;;;2.56;100.00;96186.28;5022122;28;20975;-84
2024/03/02 05:15:24;;;;;;;92.30;28.88;;;;;;;2.60;100.00;96179.59;5021903;28;25092;-84
2024/03/02 05:17:50;;;;;;;82.82;25.90;;;;;;;2.62;100.00;96180.16;5021578;28;20417;-82
2024/03/02 05:20:16;;;;;;;92.57;27.63;;;;;;;2.61;100.00;96182.00;5020097;28;20491;-83
2024/03/02 05:22:43;;;;;;;86.93;26.25;;;;;;;2.60;100.00;96185.63;5020063;28;20922;-82
2024/03/02 05:25:12;;;;;;;88.32;27.00;;;;;;;2.61;100.00;96183.81;5019143;28;20417;-83
2024/03/02 05:27:38;;;;;;;95.28;27.95;;;;;;;2.61;100.00;96184.59;5022809;28;20744;-82
2024/03/02 05:30:06;;;;;;;83.72;26.33;;;;;;;2.56;100.00;96194.13;5029694;28;20427;-82
2024/03/02 05:32:33;;;;;;;90.13;27.95;;;;;;;2.52;100.00;96190.41;5030862;28;20408;-82
2024/03/02 05:34:59;;;;;;;97.55;27.92;;;;;;;2.52;100.00;96185.16;5024561;28;20493;-84
2024/03/02 05:37:26;;;;;;;88.70;26.52;;;;;;;2.53;100.00;96192.78;5024388;28;20435;-82
2024/03/02 05:39:52;;;;;;;85.63;26.83;;;;;;;2.49;100.00;96190.84;5022488;28;20408;-83
2024/03/02 05:42:18;;;;;;;80.78;26.23;;;;;;;2.47;100.00;96191.09;5023828;28;20415;-83
2024/03/02 05:44:48;;;;;;;83.97;26.00;;;;;;;2.48;100.00;96189.28;5026457;28;20407;-82
2024/03/02 05:47:20;;;;;;;93.53;28.63;;;;;;;2.48;100.00;96190.03;5028058;28;20452;-84
2024/03/02 05:49:48;;;;;;;87.38;28.08;;;;;;;2.51;100.00;96199.25;5025484;28;20517;-80
2024/03/02 05:52:14;;;;;;;89.43;27.40;;;;;;;2.50;100.00;96206.28;5026809;28;20459;-82
2024/03/02 05:54:40;;;;;;;86.25;28.25;;;;;;;2.52;100.00;96200.84;5022766;28;20405;-81
2024/03/02 05:57:38;;;;;;;97.95;29.08;;;;;;;2.57;100.00;96203.56;5022057;28;20396;-85
2024/03/02 06:00:07;;;;;;;86.75;28.20;;;;;;;2.60;100.00;96203.09;5019981;28;20426;-84
2024/03/02 06:02:35;;;;;;;87.18;27.95;;;;;;;2.62;100.00;96207.09;5020790;28;20906;-83
2024/03/02 06:05:02;;;;;;;91.32;27.92;;;;;;;2.65;100.00;96195.38;5020810;28;20397;-81
2024/03/02 06:07:30;;;;;;;91.22;27.65;;;;;;;2.65;100.00;96200.59;5020610;28;20448;-82
2024/03/02 06:09:56;;;;;;;84.93;26.65;;;;;;;2.63;100.00;96197.44;5020499;28;20459;-82
2024/03/02 06:12:22;;;;;;;81.70;26.50;;;;;;;2.63;100.00;96198.19;5020546;28;20416;-82
2024/03/02 06:14:48;;;;;;;82.15;26.05;;;;;;;2.63;100.00;96197.44;5020618;28;20431;-82
2024/03/02 06:17:15;;;;;;;88.50;26.00;;;;;;;2.65;100.00;96204.00;5020642;28;20405;-81
2024/03/02 06:19:41;;;;;;;77.97;26.02;;;;;;;2.66;100.00;96205.59;5021140;28;20828;-81
2024/03/02 06:22:09;;;;;;;79.63;26.00;;;;;;;2.69;100.00;96202.53;5020377;28;20408;-81
2024/03/02 06:24:37;;;;;;;81.82;26.25;;;;;;;2.71;100.00;96207.50;5021719;28;20424;-81
2024/03/02 06:27:04;;;;;;;91.15;27.33;;;;;;;2.74;100.00;96207.06;5025168;28;20432;-80
2024/03/02 06:29:32;;;;;;;82.30;24.73;;;;;;;2.85;100.00;96215.91;5023334;28;20398;-80
2024/03/02 06:31:58;;;;;;;74.30;23.95;;;;;;;2.91;100.00;96218.38;5024111;28;20443;-80
2024/03/02 06:34:24;;;;;;;77.05;25.02;;;;;;;2.98;100.00;96211.22;5025759;28;20862;-84
2024/03/02 06:36:50;;;;;;;79.00;24.58;;;;;;;3.07;100.00;96222.91;5021257;28;20397;-83
2024/03/02 06:39:18;;;;;;;72.18;23.65;;;;;;;3.11;100.00;96215.38;5027050;28;20400;-82
2024/03/02 06:41:44;;;;;;;77.05;23.35;;;;;;;3.14;100.00;96224.56;5033611;28;20389;-82
2024/03/02 06:44:10;;;;;;;79.15;25.15;;;;;;;3.23;100.00;96229.22;5021660;28;20407;-83
2024/03/02 06:46:36;;;;;;;77.50;23.25;;;;;;;3.30;100.00;96226.47;5022875;28;20411;-82
2024/03/02 06:49:03;;;;;;;79.60;24.05;;;;;;;3.31;100.00;96228.81;5032588;28;20499;-84
2024/03/02 06:51:30;;;;;;;67.32;22.05;;;;;;;3.39;100.00;96230.28;5041853;28;20448;-83
2024/03/02 06:53:56;;;;;;;69.63;22.55;;;;;;;3.43;100.00;96231.41;5040802;28;20734;-82
2024/03/02 06:56:24;;;;;;;68.55;21.67;;;;;;;3.49;100.00;96226.03;5024270;28;20987;-82
2024/03/02 06:58:50;;;;;;;77.65;24.63;;;;;;;3.49;100.00;96220.00;5020921;28;20415;-83
2024/03/02 07:01:16;;;;;;;72.03;23.83;;;;;;;3.48;100.00;96221.81;5019842;28;20417;-83
2024/03/02 07:03:42;;;;;;;70.63;21.45;;;;;;;3.59;100.00;96220.19;5021105;28;20419;-81
2024/03/02 07:06:09;;;;;;;82.40;24.13;;;;;;;3.60;100.00;96215.75;5021748;28;20444;-83
2024/03/02 07:08:35;;;;;;;74.15;23.55;;;;;;;3.62;100.00;96232.78;5025904;28;20397;-84
2024/03/02 07:11:01;;;;;;;74.22;24.02;;;;;;;3.78;100.00;96220.75;5023114;28;20423;-83
2024/03/02 07:13:29;;;;;;;60.85;20.70;;;;;;;3.92;100.00;96223.88;5034522;28;20440;-85
2024/03/02 07:18:30;;;;;;;61.60;19.73;;;;;;;4.01;100.00;96225.84;5027313;28;20409;-87
2024/03/02 07:20:59;;;;;;;70.57;22.48;;;;;;;4.05;100.00;96226.19;5036022;28;20395;-83
2024/03/02 07:23:27;;;;;;;49.97;17.63;;;;;;;4.20;100.00;96231.66;5026162;28;20401;-83
2024/03/02 07:25:56;;;;;;;42.37;16.30;;;;;;;4.27;100.00;96234.91;5035830;28;20399;-85
2024/03/02 07:28:22;;;;;;;45.30;16.13;;;;;;;4.38;100.00;96235.84;5043638;28;20907;-80
2024/03/02 07:30:58;;;;;;;34.42;12.77;;;;;;;4.48;100.00;96236.78;5043100;28;20399;-85
2024/03/02 07:33:24;;;;;;;34.88;12.73;;;;;;;4.53;100.00;96225.59;5038080;28;20397;-85
2024/03/02 07:35:51;;;;;;;29.25;12.18;;;;;;;4.53;100.00;96228.19;5024537;28;20408;-86
2024/03/02 07:38:17;;;;;;;49.63;17.30;;;;;;;4.47;100.00;96227.34;5024545;28;20833;-85
2024/03/02 07:40:43;;;;;;;40.58;16.20;;;;;;;4.44;100.00;96227.03;5024771;28;20413;-84
2024/03/02 07:43:10;;;;;;;41.13;16.90;;;;;;;4.31;100.00;96237.84;5023915;28;20404;-85
2024/03/02 07:45:36;;;;;;;48.17;17.55;;;;;;;4.31;100.00;96235.22;5027324;28;20401;-85
2024/03/02 07:48:04;;;;;;;40.70;16.10;;;;;;;4.32;100.00;96240.22;5028751;28;20460;-80
2024/03/02 07:50:30;;;;;;;39.20;16.50;;;;;;;4.43;100.00;96239.34;5041411;28;20383;-85
2024/03/02 07:52:56;;;;;;;40.90;16.42;;;;;;;4.32;100.00;96236.81;5043624;28;21542;-84
2024/03/02 07:55:25;;;;;;;40.97;16.17;;;;;;;4.35;100.00;96246.81;5038252;28;20393;-85
2024/03/02 07:57:51;;;;;;;36.28;15.85;;;;;;;4.29;100.00;96241.47;5034348;28;20988;-87
2024/03/02 08:00:17;;;;;;;36.27;16.13;;;;;;;4.28;100.00;96241.75;5037128;28;20877;-85
2024/03/02 08:02:44;;;;;;;37.78;16.52;;;;;;;4.33;100.00;96244.44;5033796;28;20801;-86
2024/03/02 08:05:11;;;;;;;41.47;16.98;;;;;;;4.31;100.00;96238.63;5027878;28;20447;-84
2024/03/02 08:07:38;;;;;;;38.60;17.10;;;;;;;4.28;100.00;96236.50;5039721;28;20418;-80
2024/03/02 08:10:05;;;;;;;34.92;15.57;;;;;;;4.45;100.00;96233.84;5042868;28;20399;-80
2024/03/02 08:12:31;;;;;;;39.33;16.47;;;;;;;4.43;100.00;96231.50;5039560;28;20419;-81
2024/03/02 08:14:57;;;;;;;36.45;16.25;;;;;;;4.46;100.00;96232.81;5041269;28;20399;-82
2024/03/02 08:17:24;;;;;;;37.30;15.67;;;;;;;4.51;100.00;96236.31;5034951;28;20755;-82
2024/03/02 08:19:50;;;;;;;39.08;16.55;;;;;;;4.62;100.00;96230.19;5027466;28;20396;-81
2024/03/02 08:22:17;;;;;;;31.77;15.45;;;;;;;4.67;100.00;96230.25;5029093;28;20419;-80
2024/03/02 08:24:43;;;;;;;29.80;14.15;;;;;;;4.73;100.00;96225.09;5030126;28;20428;-81
2024/03/02 08:27:10;;;;;;;32.97;14.55;;;;;;;4.89;100.00;96227.63;5037939;28;20442;-82
2024/03/02 08:29:36;;;;;;;27.08;13.77;;;;;;;4.91;100.00;96220.31;5028329;28;20450;-82
2024/03/02 08:32:02;;;;;;;26.90;13.65;;;;;;;5.02;100.00;96216.00;5033086;28;20421;-81
2024/03/02 08:34:29;;;;;;;27.13;13.38;;;;;;;5.26;100.00;96225.19;5033636;28;20555;-82
2024/03/02 08:36:55;;;;;;;27.67;13.57;;;;;;;5.79;100.00;96216.53;5028314;28;20392;-81
2024/03/02 08:39:22;;;;;;;24.50;12.57;;;;;;;6.06;100.00;96224.44;5030120;28;20408;-82
2024/03/02 08:41:49;;;;;;;22.08;12.13;;;;;;;6.28;100.00;96226.97;5030981;28;20463;-80
2024/03/02 08:44:16;;;;;;;16.88;10.23;;;;;;;6.38;100.00;96215.75;5029910;28;20463;-80
2024/03/02 08:46:42;;;;;;;18.15;10.60;;;;;;;6.61;100.00;96215.38;5031877;28;20428;-81
2024/03/02 08:49:08;;;;;;;14.07;8.43;;;;;;;7.19;100.00;96224.06;5027764;28;20474;-78
2024/03/02 08:51:34;;;;;;;14.13;8.35;;;;;;;7.55;100.00;96227.59;5031987;28;20425;-81
2024/03/02 08:54:01;;;;;;;13.93;8.80;;;;;;;7.59;100.00;96218.13;5032887;28;20417;-83
2024/03/02 08:56:28;;;;;;;14.75;8.88;;;;;;;7.83;100.00;96205.25;5030647;28;20464;-82
2024/03/02 08:58:54;;;;;;;11.55;7.45;;;;;;;8.08;100.00;96211.34;5034664;28;20411;-82
2024/03/02 09:01:21;;;;;;;8.77;5.97;;;;;;;8.71;100.00;96224.25;5030016;28;20591;-81
2024/03/02 09:03:48;;;;;;;11.90;6.85;;;;;;;9.08;100.00;96219.38;5028801;28;20399;-81
2024/03/02 09:06:20;;;;;;;9.63;6.40;;;;;;;9.35;100.00;96210.28;5031441;28;20446;-81
2024/03/02 09:08:46;;;;;;;12.63;6.60;;;;;;;9.49;100.00;96206.78;5035395;28;20397;-79
2024/03/02 09:11:13;;;;;;;10.55;6.55;;;;;;;9.44;100.00;96198.09;5029321;28;20492;-80
2024/03/02 09:13:40;;;;;;;11.27;6.45;;;;;;;9.50;100.00;96194.34;5038035;28;20403;-80
2024/03/02 09:16:10;;;;;;;8.63;5.95;;;;;;;10.01;100.00;96197.44;5029930;28;20429;-80
2024/03/02 09:18:37;;;;;;;10.55;6.68;;;;;;;9.67;100.00;96200.06;5040432;28;20820;-80
2024/03/02 09:21:04;;;;;;;11.15;6.90;;;;;;;9.79;100.00;96191.78;5029249;28;20411;-84
2024/03/02 09:23:30;;;;;;;12.25;7.15;;;;;;;9.87;100.00;96184.06;5030549;28;20486;-85
2024/03/02 09:25:56;;;;;;;9.23;5.97;;;;;;;10.24;100.00;96191.47;5030117;28;20399;-83
2024/03/02 09:28:22;;;;;;;10.00;5.90;;;;;;;10.30;100.00;96181.66;5031450;28;20416;-85
2024/03/02 09:30:50;;;;;;;8.82;5.78;;;;;;;10.30;100.00;96173.72;5036616;28;20433;-81
2024/03/02 09:33:16;;;;;;;8.23;5.30;;;;;;;10.78;100.00;96172.69;5041261;28;20430;-82
2024/03/02 09:35:42;;;;;;;7.90;5.40;;;;;;;10.97;100.00;96170.13;5043606;28;20400;-80
2024/03/02 09:38:08;;;;;;;6.10;4.15;;;;;;;11.50;100.00;96177.94;5031656;28;20405;-79
2024/03/02 09:40:34;;;;;;;7.73;4.67;;;;;;;11.83;100.00;96173.50;5033712;28;20521;-78
2024/03/02 09:43:02;;;;;;;6.88;3.95;;;;;;;12.01;100.00;96160.22;5029829;28;20432;-83
2024/03/02 09:45:31;;;;;;;5.95;3.80;;;;;;;12.83;100.00;96158.78;5033157;28;20423;-82
2024/03/02 09:47:59;;;;;;;5.18;3.60;;;;;;;13.16;100.00;96162.94;5024553;28;20436;-83
2024/03/02 09:50:25;;;;;;;6.22;3.20;;;;;;;13.89;100.00;96154.69;5029485;28;20399;-85
2024/03/02 09:52:54;;;;;;;5.65;3.60;;;;;;;14.35;100.00;96142.94;5036195;28;20415;-85
2024/03/02 09:55:21;;;;;;;5.60;3.60;;;;;;;14.82;100.00;96141.44;5027256;28;20399;-84
2024/03/02 09:57:50;;;;;;;4.75;2.88;;;;;;;15.50;100.00;96137.38;5027338;28;20407;-84
2024/03/02 10:00:17;;;;;;;2.88;2.38;;;;;;;16.49;100.00;96136.38;5028875;28;20395;-84
2024/03/02 10:02:44;;;;;;;7.18;3.40;;;;;;;16.62;100.00;96143.41;5028436;28;20401;-83
2024/03/02 10:05:14;;;;;;;3.88;2.53;;;;;;;17.68;100.00;96146.81;5043644;28;20394;-82
2024/03/02 10:07:40;;;;;;;5.65;3.10;;;;;;;17.55;100.00;96144.38;5032007;28;20397;-82
2024/03/02 10:10:16;;;;;;;3.30;2.60;;;;;;;18.12;100.00;96137.31;5027682;28;20395;-83
2024/03/02 10:12:42;;;;;;;4.60;2.70;;;;;;;17.52;100.00;96143.13;5037660;28;20410;-84
2024/03/02 10:15:09;;;;;;;2.63;2.10;;;;;;;18.52;100.00;96142.13;5030471;28;20407;-83
2024/03/02 10:17:35;;;;;;;5.20;2.57;;;;;;;18.35;100.00;96142.28;5034556;28;20415;-80
2024/03/02 10:20:23;;;;;;;2.97;2.25;;;;;;;18.88;100.00;96130.69;5027758;28;20407;-83
2024/03/02 10:22:50;;;;;;;2.80;2.10;;;;;;;18.73;100.00;96132.13;5003503;28;20418;-87
2024/03/02 10:25:30;;;;;;;2.60;1.98;;;;;;;17.86;100.00;96141.34;5004678;28;20449;-82
2024/03/02 10:27:59;;;;;;;2.80;2.47;;;;;;;19.08;98.90;96132.50;5007777;28;20481;-83
2024/03/02 10:30:25;;;;;;;3.47;2.33;;;;;;;18.40;100.00;96118.00;5024466;28;20416;-84
2024/03/02 10:32:52;;;;;;;2.25;1.77;;;;;;;18.83;100.00;96123.66;5024033;28;20467;-84
2024/03/02 10:35:19;;;;;;;2.80;1.80;;;;;;;19.41;100.00;96115.47;5025224;28;20412;-84
2024/03/02 10:37:48;;;;;;;4.60;1.98;;;;;;;19.92;100.00;96124.66;5024077;28;20404;-84
2024/03/02 10:40:14;;;;;;;3.20;2.40;;;;;;;20.04;100.00;96119.22;5023147;28;20447;-84
2024/03/02 10:42:42;;;;;;;3.03;2.08;;;;;;;20.75;100.00;96115.72;5021587;28;20408;-85
2024/03/02 10:45:11;;;;;;;4.32;2.13;;;;;;;20.34;100.00;96116.97;5024488;28;20419;-84
2024/03/02 10:47:38;;;;;;;2.13;1.92;;;;;;;19.96;100.00;96118.25;5041532;28;20401;-83
2024/03/02 10:50:08;;;;;;;3.38;1.98;;;;;;;19.52;100.00;96109.31;5043307;28;20403;-83
2024/03/02 10:52:35;;;;;;;1.77;1.60;;;;;;;19.19;100.00;96114.03;5043365;28;20420;-83
2024/03/02 10:55:06;;;;;;;2.97;2.08;;;;;;;18.79;95.33;96105.91;5032020;28;20409;-81
2024/03/02 10:57:41;;;;;;;5.40;1.90;;;;;;;18.79;99.56;96100.53;5030561;28;20496;-83
2024/03/02 11:00:14;;;;;;;3.13;1.75;;;;;;;19.61;100.00;96093.88;5026529;28;20412;-82
2024/03/02 11:02:44;;;;;;;2.03;1.40;;;;;;;19.74;100.00;96089.25;5034745;28;20403;-82
2024/03/02 11:05:14;;;;;;;4.22;1.90;;;;;;;20.00;100.00;96092.25;5040229;28;20478;-83
2024/03/02 11:07:40;;;;;;;2.45;1.77;;;;;;;19.82;100.00;96098.28;5040180;28;20399;-81
2024/03/02 11:10:09;;;;;;;2.83;1.73;;;;;;;20.13;91.38;96090.31;5039373;28;20398;-83
2024/03/02 11:12:39;;;;;;;1.65;1.30;;;;;;;19.81;90.77;96086.75;5039588;28;20458;-82
2024/03/02 11:15:11;;;;;;;3.30;1.10;;;;;;;19.40;94.89;96090.53;5039167;28;20397;-82
2024/03/02 11:17:40;;;;;;;2.70;1.30;;;;;;;19.11;96.29;96075.47;5029420;28;20469;-83
2024/03/02 11:20:08;;;;;;;2.08;1.50;;;;;;;19.41;99.50;96070.63;5015552;28;20740;-82
2024/03/02 11:22:36;;;;;;;1.40;1.30;;;;;;;19.69;100.00;96068.00;5025217;28;20436;-83
2024/03/02 11:25:02;;;;;;;1.48;1.02;;;;;;;19.52;96.70;96060.22;5021921;28;20412;-82